Holton, Kansas
Current Conditions -  °F | °C
As of 2:53 PM on Tuesday 21 Oct 2014 (Local Time) from KTOP Reporting Station
Clear Clear  
Wind Chill: 77°   Ceiling: Unl
Heat Index: 78°   Visibility: 10mi
Dew Point: 43°   Wind: 6mph
Humidity: 30%   Direction: 120°ESE
Pressure: 30.07"   Gusts: NA
Location:  39.47°N, 95.74°W
Report Text: KTOP 211953Z 12005KT 10SM CLR 25/06 A3007 RMK AO2 SLP178 T02500061
Loading
Personal Weather Stations






























Interactive Weather Map
Tropical Storm Tracking
New forecast layout! Learn more

10-Day Weather Forecast

Advertisements
Track Severe Weather on mobile